createdAt,value
2019-04-25T00:02:30.873Z,23.63
2019-04-25T00:05:08.129Z,28.10
2019-04-25T00:07:39.050Z,24.00
2019-04-25T00:10:07.798Z,26.60
2019-04-25T00:12:37.866Z,23.30
2019-04-25T00:15:08.101Z,22.50
2019-04-25T00:17:37.875Z,21.50
2019-04-25T00:20:08.058Z,32.27
2019-04-25T00:22:54.592Z,21.97
2019-04-25T00:25:36.615Z,27.07
2019-04-25T00:28:06.876Z,23.13
2019-04-25T00:30:35.536Z,25.00
2019-04-25T00:33:04.098Z,25.47
2019-04-25T00:35:33.640Z,34.80
2019-04-25T00:38:02.470Z,33.27
2019-04-25T00:40:31.881Z,35.60
2019-04-25T00:43:01.588Z,36.93
2019-04-25T00:45:31.728Z,34.83
2019-04-25T00:48:00.428Z,26.03
2019-04-25T00:50:29.050Z,32.37
2019-04-25T00:52:57.914Z,33.10
2019-04-25T00:55:28.980Z,35.93
2019-04-25T00:57:59.414Z,32.50
2019-04-25T01:00:29.660Z,41.57
2019-04-25T01:03:01.636Z,40.77
2019-04-25T01:05:31.620Z,29.43
2019-04-25T01:08:02.100Z,37.13
2019-04-25T01:10:31.601Z,36.73
2019-04-25T01:13:01.114Z,33.97
2019-04-25T01:15:31.453Z,29.93
2019-04-25T01:18:01.218Z,34.70
2019-04-25T01:20:30.004Z,28.90
2019-04-25T01:23:00.764Z,36.90
2019-04-25T01:25:38.478Z,34.40
2019-04-25T01:27:59.263Z,29.63
2019-04-25T01:30:28.181Z,33.20
2019-04-25T01:33:00.129Z,34.50
2019-04-25T01:35:39.496Z,36.57
2019-04-25T01:38:09.707Z,36.00
2019-04-25T01:40:53.384Z,33.63
2019-04-25T01:43:26.730Z,36.30
2019-04-25T01:45:58.938Z,37.20
2019-04-25T01:48:27.539Z,31.07
2019-04-25T01:50:58.754Z,30.03
2019-04-25T01:53:27.341Z,36.40
2019-04-25T01:56:03.693Z,33.37
2019-04-25T01:58:27.948Z,35.33
2019-04-25T02:00:58.584Z,41.57
2019-04-25T02:03:27.432Z,40.97
2019-04-25T02:05:59.117Z,31.43
2019-04-25T02:08:27.877Z,31.77
2019-04-25T02:11:02.796Z,37.00
2019-04-25T02:13:33.649Z,33.50
2019-04-25T02:16:03.428Z,30.67
2019-04-25T02:18:33.590Z,36.20
2019-04-25T02:21:04.140Z,35.40
2019-04-25T02:23:34.055Z,37.27
2019-04-25T02:26:13.922Z,29.07
2019-04-25T02:28:33.854Z,28.60
2019-04-25T02:31:08.171Z,36.90
2019-04-25T02:33:34.018Z,32.63
2019-04-25T02:36:08.306Z,36.60
2019-04-25T02:38:34.208Z,32.20
2019-04-25T02:41:08.417Z,30.93
2019-04-25T02:43:35.039Z,32.53
2019-04-25T02:46:21.563Z,44.23
2019-04-25T02:49:09.636Z,40.17
2019-04-25T02:51:52.140Z,38.57
2019-04-25T02:54:20.750Z,35.40
2019-04-25T02:56:49.363Z,25.20
2019-04-25T02:59:17.969Z,25.10
2019-04-25T03:01:46.787Z,27.73
2019-04-25T03:04:15.812Z,29.13
2019-04-25T03:06:45.414Z,32.90
2019-04-25T03:09:15.405Z,31.47
2019-04-25T03:11:45.045Z,26.83
2019-04-25T03:14:14.832Z,27.53
2019-04-25T03:16:44.869Z,18.50
2019-04-25T03:19:27.685Z,24.97
2019-04-25T03:22:07.724Z,33.43
2019-04-25T03:24:35.143Z,17.77
2019-04-25T03:27:05.230Z,17.37
2019-04-25T03:29:34.324Z,15.67
2019-04-25T03:32:08.772Z,17.40
2019-04-25T03:34:35.093Z,18.10
2019-04-25T03:37:05.287Z,13.70
2019-04-25T03:39:34.185Z,17.87
2019-04-25T03:42:04.888Z,17.87
2019-04-25T03:44:33.857Z,16.30
2019-04-25T03:47:05.923Z,14.70
2019-04-25T03:49:33.714Z,13.50
2019-04-25T03:52:04.383Z,16.30
2019-04-25T03:54:33.421Z,21.33
2019-04-25T03:57:04.767Z,16.43
2019-04-25T03:59:33.597Z,15.87
2019-04-25T04:02:03.089Z,17.30
2019-04-25T04:04:33.489Z,15.00
2019-04-25T04:07:04.438Z,16.63
2019-04-25T04:09:33.847Z,14.30
2019-04-25T04:12:04.328Z,13.30
2019-04-25T04:14:33.866Z,12.33
2019-04-25T04:17:23.687Z,13.87
2019-04-25T04:19:54.516Z,17.80
2019-04-25T04:22:27.233Z,12.57
2019-04-25T04:24:59.048Z,11.53
2019-04-25T04:27:27.765Z,15.70
2019-04-25T04:29:56.382Z,14.97
2019-04-25T04:32:25.204Z,13.33
2019-04-25T04:34:53.885Z,12.17
2019-04-25T04:37:23.637Z,12.13
2019-04-25T04:39:53.628Z,16.10
2019-04-25T04:42:23.689Z,17.43
2019-04-25T04:44:53.458Z,12.50
2019-04-25T04:47:23.527Z,16.83
2019-04-25T04:49:53.859Z,15.37
2019-04-25T04:52:25.178Z,17.93
2019-04-25T04:55:03.708Z,13.67
2019-04-25T04:57:31.931Z,11.80
2019-04-25T04:59:54.741Z,16.07
2019-04-25T05:02:39.810Z,16.53
2019-04-25T05:05:19.484Z,13.17
2019-04-25T05:07:49.774Z,13.13
2019-04-25T05:10:19.061Z,13.63
2019-04-25T05:12:48.529Z,22.53
2019-04-25T05:15:18.211Z,12.83
2019-04-25T05:17:47.706Z,15.73
2019-04-25T05:20:17.573Z,9.30
2019-04-25T05:22:46.676Z,10.37
2019-04-25T05:25:16.665Z,5.70
2019-04-25T05:28:00.073Z,8.37
2019-04-25T05:30:17.946Z,8.85
2019-04-25T05:32:46.543Z,10.03
2019-04-25T05:35:16.271Z,7.57
2019-04-25T05:37:48.221Z,6.27
2019-04-25T05:40:17.496Z,5.23
2019-04-25T05:42:56.600Z,10.20
2019-04-25T05:45:29.611Z,3.60
2019-04-25T05:47:58.535Z,4.23
2019-04-25T05:50:27.097Z,7.80
2019-04-25T05:52:55.656Z,3.70
2019-04-25T05:55:25.240Z,6.43
2019-04-25T05:57:53.962Z,4.47
2019-04-25T06:00:24.779Z,7.63
2019-04-25T06:02:53.333Z,8.47
2019-04-25T06:05:23.379Z,5.23
2019-04-25T06:07:52.360Z,7.67
2019-04-25T06:10:34.914Z,4.47
2019-04-25T06:13:05.831Z,4.60
2019-04-25T06:15:35.361Z,2.70
2019-04-25T06:18:08.163Z,4.77
2019-04-25T06:20:37.866Z,3.90
2019-04-25T06:23:13.847Z,2.23
2019-04-25T06:25:43.925Z,4.10
2019-04-25T06:28:21.646Z,13.70
2019-04-25T06:30:50.566Z,4.93
2019-04-25T06:33:19.242Z,2.47
2019-04-25T06:35:47.792Z,5.00
2019-04-25T06:38:16.791Z,2.57
2019-04-25T06:40:45.816Z,4.70
2019-04-25T06:43:14.370Z,2.87
2019-04-25T06:45:55.807Z,9.70
2019-04-25T06:48:26.257Z,3.83
2019-04-25T06:50:55.589Z,5.80
2019-04-25T06:53:25.767Z,4.00
2019-04-25T06:55:55.070Z,7.17
2019-04-25T06:58:27.050Z,6.00
2019-04-25T07:00:58.861Z,4.90
2019-04-25T07:03:27.102Z,1.80
2019-04-25T07:05:55.728Z,1.40
2019-04-25T07:08:26.913Z,1.90
2019-04-25T07:10:56.308Z,2.30
2019-04-25T07:13:26.964Z,6.60
2019-04-25T07:15:55.849Z,3.30
2019-04-25T07:18:30.247Z,2.17
2019-04-25T07:20:55.961Z,3.17
2019-04-25T07:23:25.677Z,5.67
2019-04-25T07:25:55.923Z,3.23
2019-04-25T07:28:38.084Z,2.20
2019-04-25T07:31:25.110Z,4.50
2019-04-25T07:34:07.342Z,1.47
2019-04-25T07:36:36.247Z,2.40
2019-04-25T07:39:10.656Z,7.27
2019-04-25T07:41:38.692Z,2.83
2019-04-25T07:44:07.404Z,2.23
2019-04-25T07:46:39.575Z,3.33
2019-04-25T07:49:06.901Z,4.70
2019-04-25T07:51:36.712Z,5.63
2019-04-25T07:54:05.889Z,1.80
2019-04-25T07:56:35.529Z,1.73
2019-04-25T07:59:06.626Z,1.67
2019-04-25T08:01:37.499Z,1.40
2019-04-25T08:04:06.376Z,2.50
2019-04-25T08:06:35.758Z,1.60
2019-04-25T08:09:07.997Z,2.10
2019-04-25T08:11:36.670Z,3.50
2019-04-25T08:14:14.428Z,3.40
2019-04-25T08:16:46.407Z,1.37
2019-04-25T08:19:15.448Z,1.87
2019-04-25T08:21:45.196Z,1.07
2019-04-25T08:24:14.563Z,1.30
2019-04-25T08:26:43.694Z,2.83
2019-04-25T08:29:13.265Z,3.27
2019-04-25T08:31:43.925Z,0.87
2019-04-25T08:34:14.554Z,2.30
2019-04-25T08:36:45.421Z,2.63
2019-04-25T08:39:14.616Z,2.50
2019-04-25T08:41:45.441Z,2.13
2019-04-25T08:44:14.266Z,1.20
2019-04-25T08:46:44.213Z,1.73
2019-04-25T08:49:18.028Z,2.33
2019-04-25T08:51:48.487Z,1.80
2019-04-25T08:54:27.663Z,2.17
2019-04-25T08:56:58.220Z,2.07
2019-04-25T08:59:44.795Z,3.73
2019-04-25T09:02:18.916Z,1.47
2019-04-25T09:05:05.680Z,1.23
2019-04-25T09:07:35.369Z,4.03
2019-04-25T09:10:06.410Z,1.10
2019-04-25T09:12:36.344Z,0.73
2019-04-25T09:15:06.787Z,2.37
2019-04-25T09:17:35.931Z,2.77
2019-04-25T09:20:07.649Z,2.50
2019-04-25T09:22:37.381Z,5.03
2019-04-25T09:25:10.856Z,2.93
2019-04-25T09:27:41.721Z,3.93
2019-04-25T09:30:10.413Z,0.70
2019-04-25T09:32:39.927Z,1.53
2019-04-25T09:35:08.910Z,2.77
2019-04-25T09:37:37.536Z,0.90
2019-04-25T09:40:13.833Z,2.77
2019-04-25T09:42:44.733Z,2.40
2019-04-25T09:45:24.091Z,2.00
2019-04-25T09:47:53.417Z,4.33
2019-04-25T09:50:39.662Z,1.53
2019-04-25T09:53:20.793Z,1.10
2019-04-25T09:55:44.132Z,2.83
2019-04-25T09:58:15.744Z,1.03
2019-04-25T10:00:46.509Z,3.03
2019-04-25T10:03:15.228Z,0.80
2019-04-25T10:05:44.720Z,1.37
2019-04-25T10:08:13.527Z,2.10
2019-04-25T10:10:42.813Z,0.90
2019-04-25T10:13:11.415Z,1.27
2019-04-25T10:16:04.198Z,0.93
2019-04-25T10:18:33.893Z,5.50
2019-04-25T10:21:04.757Z,10.93
2019-04-25T10:23:34.279Z,2.57
2019-04-25T10:26:03.861Z,2.10
2019-04-25T10:28:33.580Z,1.10
2019-04-25T10:31:03.549Z,0.70
2019-04-25T10:33:32.452Z,1.73
2019-04-25T10:36:01.377Z,2.60
2019-04-25T10:38:30.783Z,5.60
2019-04-25T10:40:59.390Z,2.00
2019-04-25T10:43:28.016Z,1.77
2019-04-25T10:45:58.193Z,0.70
2019-04-25T10:48:29.737Z,1.27
2019-04-25T10:50:58.425Z,1.50
2019-04-25T10:53:27.051Z,2.30
2019-04-25T10:55:55.775Z,3.70
2019-04-25T10:58:24.924Z,0.83
2019-04-25T11:00:54.657Z,0.80
2019-04-25T11:03:30.843Z,2.50
2019-04-25T11:05:59.657Z,0.90
2019-04-25T11:08:28.370Z,2.80
2019-04-25T11:11:00.360Z,0.90
2019-04-25T11:13:28.989Z,0.70
2019-04-25T11:15:57.987Z,0.93
2019-04-25T11:18:28.251Z,1.87
2019-04-25T11:20:59.838Z,2.57
2019-04-25T11:23:28.549Z,0.60
2019-04-25T11:25:57.262Z,1.10
2019-04-25T11:28:27.372Z,1.33
2019-04-25T11:30:59.218Z,0.70
2019-04-25T11:33:28.656Z,2.40
2019-04-25T11:35:57.367Z,1.70
2019-04-25T11:38:30.922Z,0.80
2019-04-25T11:41:01.382Z,1.17
2019-04-25T11:43:30.033Z,1.13
2019-04-25T11:45:58.617Z,1.17
2019-04-25T11:48:27.258Z,2.07
2019-04-25T11:50:57.394Z,0.90
2019-04-25T11:53:28.885Z,2.83
2019-04-25T11:55:58.003Z,1.23
2019-04-25T11:58:28.364Z,0.97
2019-04-25T12:00:58.028Z,0.80
2019-04-25T12:03:29.933Z,0.80
2019-04-25T12:05:58.610Z,2.83
2019-04-25T12:08:27.380Z,0.60
2019-04-25T12:10:55.998Z,0.80
2019-04-25T12:13:24.722Z,0.70
2019-04-25T12:15:54.816Z,1.97
2019-04-25T12:18:25.643Z,1.90
2019-04-25T12:20:55.442Z,1.90
2019-04-25T12:23:24.743Z,0.70
2019-04-25T12:25:54.371Z,2.57
2019-04-25T12:28:23.933Z,2.13
2019-04-25T12:30:54.963Z,3.47
2019-04-25T12:33:23.886Z,0.80
2019-04-25T12:35:54.196Z,2.27
2019-04-25T12:38:24.464Z,1.80
2019-04-25T12:40:54.371Z,0.77
2019-04-25T12:43:25.432Z,1.60
2019-04-25T12:46:02.143Z,1.47
2019-04-25T12:48:30.754Z,3.60
2019-04-25T12:50:59.773Z,5.23
2019-04-25T12:53:28.385Z,1.03
2019-04-25T12:55:57.095Z,3.20
2019-04-25T12:58:25.818Z,1.60
2019-04-25T13:00:58.582Z,4.77
2019-04-25T13:03:28.926Z,0.77
2019-04-25T13:05:58.396Z,0.80
2019-04-25T13:08:27.329Z,1.50
2019-04-25T13:11:07.541Z,0.90
2019-04-25T13:13:27.994Z,4.07
2019-04-25T13:15:58.129Z,3.27
2019-04-25T13:18:29.815Z,2.10
2019-04-25T13:20:58.937Z,1.30
2019-04-25T13:23:27.487Z,2.93
2019-04-25T13:25:59.356Z,2.50
2019-04-25T13:28:32.255Z,0.70
2019-04-25T13:31:08.962Z,1.13
2019-04-25T13:33:43.355Z,1.27
2019-04-25T13:36:16.211Z,1.70
2019-04-25T13:38:45.270Z,4.40
2019-04-25T13:41:14.009Z,4.00
2019-04-25T13:43:42.562Z,20.67
2019-04-25T13:46:15.822Z,1.80
2019-04-25T13:48:43.209Z,5.47
2019-04-25T13:51:11.771Z,5.07
2019-04-25T13:53:40.394Z,1.03
2019-04-25T13:56:09.117Z,1.53
2019-04-25T13:58:37.722Z,0.70
2019-04-25T14:01:13.277Z,0.60
2019-04-25T14:03:37.795Z,1.13
2019-04-25T14:06:06.864Z,3.90
2019-04-25T14:08:35.471Z,1.00
2019-04-25T14:11:05.217Z,1.07
2019-04-25T14:13:33.891Z,3.50
2019-04-25T14:16:10.530Z,1.00
2019-04-25T14:18:56.579Z,1.87
2019-04-25T14:21:26.133Z,1.97
2019-04-25T14:23:55.612Z,1.13
2019-04-25T14:26:25.664Z,0.90
2019-04-25T14:28:56.378Z,1.27
2019-04-25T14:31:40.660Z,1.10
2019-04-25T14:33:55.551Z,0.70
2019-04-25T14:36:28.350Z,0.80
2019-04-25T14:38:59.788Z,0.83
2019-04-25T14:41:28.839Z,1.27
2019-04-25T14:43:57.448Z,2.80
2019-04-25T14:46:29.929Z,1.23
2019-04-25T14:48:58.570Z,1.10
2019-04-25T14:51:28.134Z,1.13
2019-04-25T14:54:04.645Z,3.07
2019-04-25T14:56:37.717Z,0.67
2019-04-25T14:59:06.650Z,1.70
2019-04-25T15:01:44.633Z,2.00
2019-04-25T15:04:05.929Z,8.63
2019-04-25T15:06:34.524Z,1.00
2019-04-25T15:09:03.150Z,0.93
2019-04-25T15:11:31.760Z,1.27
2019-04-25T15:14:00.471Z,2.70
2019-04-25T15:16:29.192Z,6.43
2019-04-25T15:19:05.432Z,1.50
2019-04-25T15:21:34.203Z,1.83
2019-04-25T15:24:02.826Z,1.30
2019-04-25T15:26:31.446Z,2.00
2019-04-25T15:29:00.055Z,4.93
2019-04-25T15:31:30.156Z,3.40
2019-04-25T15:33:58.935Z,1.60
2019-04-25T15:36:29.174Z,2.10
2019-04-25T15:39:15.603Z,1.00
2019-04-25T15:41:48.303Z,2.50
2019-04-25T15:44:21.217Z,2.60
2019-04-25T15:46:51.412Z,2.20
2019-04-25T15:49:20.080Z,1.10
2019-04-25T15:51:48.791Z,1.60
2019-04-25T15:54:17.406Z,0.97
2019-04-25T15:56:46.120Z,0.70
2019-04-25T15:59:14.834Z,2.00
2019-04-25T16:01:43.559Z,1.47
2019-04-25T16:04:12.168Z,10.13
2019-04-25T16:06:40.790Z,1.07
2019-04-25T16:09:10.528Z,2.90
2019-04-25T16:11:39.514Z,2.10
2019-04-25T16:14:08.205Z,4.63
2019-04-25T16:16:38.277Z,0.87
2019-04-25T16:19:07.186Z,1.00
2019-04-25T16:21:35.813Z,1.97
2019-04-25T16:24:04.724Z,13.97
2019-04-25T16:26:33.620Z,18.07
2019-04-25T16:29:02.708Z,19.53
2019-04-25T16:31:32.278Z,15.57
2019-04-25T16:34:03.872Z,23.70
2019-04-25T16:36:32.582Z,3.07
2019-04-25T16:39:01.402Z,3.53
2019-04-25T16:41:31.475Z,3.60
2019-04-25T16:44:04.413Z,2.30
2019-04-25T16:46:34.204Z,5.73
2019-04-25T16:49:02.921Z,30.63
2019-04-25T16:51:31.635Z,31.23
2019-04-25T16:54:03.013Z,22.63
2019-04-25T16:56:32.460Z,56.37
2019-04-25T16:59:01.728Z,39.03
2019-04-25T17:01:30.432Z,6.27
2019-04-25T17:03:59.254Z,2.50
2019-04-25T17:06:29.973Z,5.27
2019-04-25T17:08:58.724Z,7.03
2019-04-25T17:11:27.347Z,2.90
2019-04-25T17:14:01.999Z,1.60
2019-04-25T17:16:44.329Z,2.30
2019-04-25T17:19:14.986Z,8.73
2019-04-25T17:21:44.416Z,2.50
2019-04-25T17:24:13.039Z,1.17
2019-04-25T17:26:42.228Z,0.90
2019-04-25T17:29:12.915Z,1.33
2019-04-25T17:31:58.323Z,2.20
2019-04-25T17:34:28.674Z,0.83
2019-04-25T17:36:59.031Z,1.70
2019-04-25T17:39:44.644Z,0.77
2019-04-25T17:42:13.359Z,1.80
2019-04-25T17:44:42.584Z,2.40
2019-04-25T17:47:11.298Z,1.10
2019-04-25T17:49:39.929Z,0.70
2019-04-25T17:52:08.924Z,1.43
2019-04-25T17:54:37.536Z,1.00
2019-04-25T17:57:06.757Z,1.30
2019-04-25T17:59:35.473Z,2.33
2019-04-25T18:02:04.599Z,1.33
2019-04-25T18:04:34.056Z,0.80
2019-04-25T18:07:03.457Z,0.50
2019-04-25T18:09:32.378Z,0.70
2019-04-25T18:12:01.104Z,1.13
2019-04-25T18:14:29.821Z,0.80
2019-04-25T18:16:58.755Z,1.13
2019-04-25T18:19:29.005Z,1.37
2019-04-25T18:21:59.282Z,1.47
2019-04-25T18:24:41.380Z,2.77
2019-04-25T18:27:18.085Z,3.13
2019-04-25T18:29:49.311Z,1.63
2019-04-25T18:32:17.867Z,1.60
2019-04-25T18:34:48.231Z,10.60
2019-04-25T18:37:31.085Z,2.57
2019-04-25T18:40:01.343Z,5.30
2019-04-25T18:42:49.846Z,3.77
2019-04-25T18:45:23.350Z,2.20
2019-04-25T18:47:51.968Z,4.10
2019-04-25T18:50:22.279Z,2.27
2019-04-25T18:53:01.491Z,4.00
2019-04-25T18:55:31.749Z,5.23
2019-04-25T18:58:18.190Z,2.40
2019-04-25T19:01:03.306Z,2.80
2019-04-25T19:03:51.704Z,4.63
2019-04-25T19:06:21.934Z,3.50
2019-04-25T19:08:52.514Z,1.23
2019-04-25T19:11:20.919Z,3.63
2019-04-25T19:13:49.541Z,1.37
2019-04-25T19:16:18.247Z,1.33
2019-04-25T19:18:48.008Z,1.83
2019-04-25T19:21:16.699Z,1.50
2019-04-25T19:23:46.091Z,3.13
2019-04-25T19:26:14.858Z,2.00
2019-04-25T19:28:43.470Z,2.13
2019-04-25T19:31:12.115Z,0.90
2019-04-25T19:33:41.635Z,1.90
2019-04-25T19:36:10.768Z,1.97
2019-04-25T19:38:39.561Z,1.13
2019-04-25T19:41:10.957Z,2.80
2019-04-25T19:43:42.190Z,6.30
2019-04-25T19:46:10.875Z,1.70
2019-04-25T19:48:41.227Z,1.63
2019-04-25T19:51:09.867Z,1.63
2019-04-25T19:53:38.844Z,4.87
2019-04-25T19:56:07.472Z,1.60
2019-04-25T19:58:36.208Z,1.17
2019-04-25T20:01:05.255Z,3.43
2019-04-25T20:03:49.187Z,1.73
2019-04-25T20:06:13.565Z,0.90
2019-04-25T20:08:44.833Z,1.20
2019-04-25T20:11:33.598Z,3.20
2019-04-25T20:14:02.449Z,2.30
2019-04-25T20:16:33.082Z,3.50
2019-04-25T20:19:01.780Z,1.63
2019-04-25T20:21:30.413Z,1.30
2019-04-25T20:24:01.018Z,2.37
2019-04-25T20:26:29.612Z,1.40
2019-04-25T20:28:58.233Z,4.00
2019-04-25T20:31:29.613Z,1.40
2019-04-25T20:34:05.242Z,3.03
2019-04-25T20:36:28.933Z,1.13
2019-04-25T20:38:57.587Z,1.20
2019-04-25T20:41:26.747Z,2.50
2019-04-25T20:43:58.274Z,1.17
2019-04-25T20:46:30.111Z,1.73
2019-04-25T20:48:59.088Z,1.27
2019-04-25T20:51:27.702Z,2.60
2019-04-25T20:53:57.089Z,2.00
2019-04-25T20:56:27.315Z,1.83
2019-04-25T20:58:57.675Z,3.63
2019-04-25T21:01:26.402Z,1.37
2019-04-25T21:03:56.228Z,3.43
2019-04-25T21:06:29.892Z,1.20
2019-04-25T21:08:58.498Z,2.30
2019-04-25T21:11:27.520Z,2.10
2019-04-25T21:14:03.323Z,3.53
2019-04-25T21:16:43.210Z,3.23
2019-04-25T21:19:19.711Z,1.40
2019-04-25T21:21:48.352Z,1.63
2019-04-25T21:24:16.978Z,1.47
2019-04-25T21:26:46.637Z,1.87
2019-04-25T21:29:15.584Z,2.03
2019-04-25T21:31:44.195Z,1.30
2019-04-25T21:34:25.177Z,1.80
2019-04-25T21:36:43.270Z,1.27
2019-04-25T21:39:14.129Z,1.20
2019-04-25T21:41:47.759Z,1.33
2019-04-25T21:44:17.731Z,1.87
2019-04-25T21:46:46.512Z,3.57
2019-04-25T21:49:15.430Z,1.40
2019-04-25T21:51:44.038Z,4.50
2019-04-25T21:54:13.055Z,3.03
2019-04-25T21:56:41.873Z,4.10
2019-04-25T21:59:10.791Z,2.00
2019-04-25T22:01:41.348Z,2.03
2019-04-25T22:04:09.964Z,1.27
2019-04-25T22:06:38.771Z,4.37
2019-04-25T22:09:11.268Z,1.53
2019-04-25T22:11:39.993Z,2.80
2019-04-25T22:14:09.614Z,2.50
2019-04-25T22:16:38.776Z,3.60
2019-04-25T22:19:07.855Z,4.83
2019-04-25T22:21:38.205Z,3.90
2019-04-25T22:24:13.723Z,1.60
2019-04-25T22:26:38.113Z,2.10
2019-04-25T22:29:07.551Z,2.63
2019-04-25T22:31:53.269Z,1.60
2019-04-25T22:34:26.814Z,3.97
2019-04-25T22:36:58.618Z,3.57
2019-04-25T22:39:27.328Z,2.77
2019-04-25T22:41:59.541Z,2.40
2019-04-25T22:44:29.175Z,1.73
2019-04-25T22:46:58.091Z,3.30
2019-04-25T22:49:28.344Z,3.23
2019-04-25T22:52:00.585Z,4.97
2019-04-25T22:54:30.787Z,2.47
2019-04-25T22:57:00.074Z,3.57
2019-04-25T22:59:30.469Z,2.57
2019-04-25T23:02:02.420Z,2.40
2019-04-25T23:04:33.218Z,6.27
2019-04-25T23:07:02.548Z,1.83
2019-04-25T23:09:32.994Z,2.13
2019-04-25T23:12:02.061Z,2.17
2019-04-25T23:14:31.442Z,2.43
2019-04-25T23:17:00.050Z,2.70
2019-04-25T23:19:28.657Z,3.80
2019-04-25T23:21:58.401Z,7.37
2019-04-25T23:24:28.584Z,2.17
2019-04-25T23:27:08.011Z,2.37
2019-04-25T23:29:36.627Z,2.83
2019-04-25T23:32:06.736Z,1.80
2019-04-25T23:34:35.307Z,3.40
2019-04-25T23:37:04.711Z,2.30
2019-04-25T23:39:34.204Z,1.93
2019-04-25T23:42:02.785Z,3.20
2019-04-25T23:44:31.394Z,2.00
2019-04-25T23:47:00.514Z,4.70
2019-04-25T23:49:29.533Z,4.03
2019-04-25T23:51:58.454Z,4.20
2019-04-25T23:54:27.162Z,2.50
2019-04-25T23:56:58.851Z,3.63
2019-04-25T23:59:27.560Z,4.80
